sensor_id;sensor_type;location;lat;lon;timestamp;P1;durP1;ratioP1;P2;durP2;ratioP2
63880;SDS011;50046;46.672;11.152;2023-01-04T00:00:08;0.50;;;0.50;;
63880;SDS011;50046;46.672;11.152;2023-01-04T00:00:19;0.50;;;0.50;;
63880;SDS011;50046;46.672;11.152;2023-01-04T00:00:29;0.50;;;0.50;;
63880;SDS011;50046;46.672;11.152;2023-01-04T00:00:40;0.50;;;0.50;;
63880;SDS011;50046;46.672;11.152;2023-01-04T00:00:50;0.40;;;0.40;;
63880;SDS011;50046;46.672;11.152;2023-01-04T00:01:01;0.40;;;0.40;;
63880;SDS011;50046;46.672;11.152;2023-01-04T00:01:15;0.40;;;0.40;;
63880;SDS011;50046;46.672;11.152;2023-01-04T00:01:27;0.50;;;0.50;;
63880;SDS011;50046;46.672;11.152;2023-01-04T00:01:38;0.50;;;0.50;;
63880;SDS011;50046;46.672;11.152;2023-01-04T00:01:49;0.50;;;0.50;;
63880;SDS011;50046;46.672;11.152;2023-01-04T00:01:59;0.50;;;0.50;;
63880;SDS011;50046;46.672;11.152;2023-01-04T00:02:09;0.40;;;0.40;;
63880;SDS011;50046;46.672;11.152;2023-01-04T00:02:20;0.40;;;0.40;;
63880;SDS011;50046;46.672;11.152;2023-01-04T00:02:30;0.40;;;0.40;;
63880;SDS011;50046;46.672;11.152;2023-01-04T00:02:41;0.40;;;0.40;;
63880;SDS011;50046;46.672;11.152;2023-01-04T00:02:51;0.50;;;0.50;;
63880;SDS011;50046;46.672;11.152;2023-01-04T00:03:01;0.53;;;0.53;;
63880;SDS011;50046;46.672;11.152;2023-01-04T00:03:12;0.52;;;0.52;;
63880;SDS011;50046;46.672;11.152;2023-01-04T00:03:22;0.50;;;0.50;;
63880;SDS011;50046;46.672;11.152;2023-01-04T00:03:33;0.50;;;0.50;;
63880;SDS011;50046;46.672;11.152;2023-01-04T00:03:43;0.50;;;0.50;;
63880;SDS011;50046;46.672;11.152;2023-01-04T00:03:54;0.40;;;0.40;;
63880;SDS011;50046;46.672;11.152;2023-01-04T00:04:05;0.40;;;0.40;;
63880;SDS011;50046;46.672;11.152;2023-01-04T00:04:15;0.47;;;0.47;;
63880;SDS011;50046;46.672;11.152;2023-01-04T00:04:25;0.50;;;0.50;;
63880;SDS011;50046;46.672;11.152;2023-01-04T00:04:36;0.60;;;0.60;;
63880;SDS011;50046;46.672;11.152;2023-01-04T00:04:46;0.50;;;0.50;;
63880;SDS011;50046;46.672;11.152;2023-01-04T00:04:57;0.50;;;0.50;;
63880;SDS011;50046;46.672;11.152;2023-01-04T00:05:07;0.50;;;0.50;;
63880;SDS011;50046;46.672;11.152;2023-01-04T00:05:17;0.40;;;0.40;;
63880;SDS011;50046;46.672;11.152;2023-01-04T00:05:28;0.40;;;0.40;;
63880;SDS011;50046;46.672;11.152;2023-01-04T00:05:38;0.40;;;0.40;;
63880;SDS011;50046;46.672;11.152;2023-01-04T00:05:49;0.40;;;0.40;;
63880;SDS011;50046;46.672;11.152;2023-01-04T00:06:00;0.40;;;0.40;;
63880;SDS011;50046;46.672;11.152;2023-01-04T00:06:13;0.50;;;0.50;;
63880;SDS011;50046;46.672;11.152;2023-01-04T00:06:25;0.45;;;0.45;;
63880;SDS011;50046;46.672;11.152;2023-01-04T00:06:35;0.40;;;0.40;;
63880;SDS011;50046;46.672;11.152;2023-01-04T00:06:45;0.40;;;0.40;;
63880;SDS011;50046;46.672;11.152;2023-01-04T00:06:56;0.40;;;0.40;;
63880;SDS011;50046;46.672;11.152;2023-01-04T00:07:06;0.50;;;0.50;;
63880;SDS011;50046;46.672;11.152;2023-01-04T00:07:16;0.50;;;0.50;;
63880;SDS011;50046;46.672;11.152;2023-01-04T00:07:29;0.50;;;0.50;;
63880;SDS011;50046;46.672;11.152;2023-01-04T00:07:40;0.50;;;0.50;;
63880;SDS011;50046;46.672;11.152;2023-01-04T00:07:50;0.40;;;0.40;;
63880;SDS011;50046;46.672;11.152;2023-01-04T00:08:00;0.40;;;0.40;;
63880;SDS011;50046;46.672;11.152;2023-01-04T00:08:11;0.40;;;0.40;;
63880;SDS011;50046;46.672;11.152;2023-01-04T00:08:21;0.45;;;0.45;;
63880;SDS011;50046;46.672;11.152;2023-01-04T00:08:32;0.50;;;0.50;;
63880;SDS011;50046;46.672;11.152;2023-01-04T00:08:43;0.60;;;0.60;;
63880;SDS011;50046;46.672;11.152;2023-01-04T00:08:53;0.50;;;0.50;;
63880;SDS011;50046;46.672;11.152;2023-01-04T00:09:04;0.50;;;0.50;;
63880;SDS011;50046;46.672;11.152;2023-01-04T00:09:14;0.50;;;0.50;;
63880;SDS011;50046;46.672;11.152;2023-01-04T00:09:25;0.50;;;0.50;;
63880;SDS011;50046;46.672;11.152;2023-01-04T00:09:35;0.40;;;0.40;;
63880;SDS011;50046;46.672;11.152;2023-01-04T00:09:45;0.40;;;0.40;;
63880;SDS011;50046;46.672;11.152;2023-01-04T00:09:56;0.40;;;0.40;;
63880;SDS011;50046;46.672;11.152;2023-01-04T00:10:07;0.32;;;0.32;;
63880;SDS011;50046;46.672;11.152;2023-01-04T00:10:17;0.32;;;0.32;;
63880;SDS011;50046;46.672;11.152;2023-01-04T00:10:28;0.40;;;0.40;;
63880;SDS011;50046;46.672;11.152;2023-01-04T00:10:38;0.50;;;0.50;;
63880;SDS011;50046;46.672;11.152;2023-01-04T00:10:49;0.50;;;0.50;;
63880;SDS011;50046;46.672;11.152;2023-01-04T00:11:02;0.45;;;0.45;;
63880;SDS011;50046;46.672;11.152;2023-01-04T00:11:16;0.40;;;0.40;;
63880;SDS011;50046;46.672;11.152;2023-01-04T00:11:29;0.40;;;0.40;;
63880;SDS011;50046;46.672;11.152;2023-01-04T00:11:39;0.50;;;0.50;;
63880;SDS011;50046;46.672;11.152;2023-01-04T00:11:50;0.50;;;0.50;;
63880;SDS011;50046;46.672;11.152;2023-01-04T00:12:00;0.50;;;0.50;;
63880;SDS011;50046;46.672;11.152;2023-01-04T00:12:10;0.50;;;0.50;;
63880;SDS011;50046;46.672;11.152;2023-01-04T00:12:21;0.50;;;0.50;;
63880;SDS011;50046;46.672;11.152;2023-01-04T00:12:33;0.40;;;0.40;;
63880;SDS011;50046;46.672;11.152;2023-01-04T00:12:45;0.40;;;0.40;;
63880;SDS011;50046;46.672;11.152;2023-01-04T00:12:55;0.40;;;0.40;;
63880;SDS011;50046;46.672;11.152;2023-01-04T00:13:05;0.40;;;0.40;;
63880;SDS011;50046;46.672;11.152;2023-01-04T00:13:16;0.50;;;0.50;;
63880;SDS011;50046;46.672;11.152;2023-01-04T00:13:26;0.50;;;0.50;;
63880;SDS011;50046;46.672;11.152;2023-01-04T00:13:37;0.50;;;0.50;;
63880;SDS011;50046;46.672;11.152;2023-01-04T00:13:48;0.40;;;0.40;;
63880;SDS011;50046;46.672;11.152;2023-01-04T00:14:01;0.40;;;0.40;;
63880;SDS011;50046;46.672;11.152;2023-01-04T00:14:12;0.40;;;0.40;;
63880;SDS011;50046;46.672;11.152;2023-01-04T00:14:23;0.40;;;0.40;;
63880;SDS011;50046;46.672;11.152;2023-01-04T00:14:33;0.50;;;0.50;;
63880;SDS011;50046;46.672;11.152;2023-01-04T00:14:44;0.50;;;0.50;;
63880;SDS011;50046;46.672;11.152;2023-01-04T00:14:54;0.50;;;0.50;;
63880;SDS011;50046;46.672;11.152;2023-01-04T00:15:04;0.40;;;0.40;;
63880;SDS011;50046;46.672;11.152;2023-01-04T00:15:15;0.40;;;0.40;;
63880;SDS011;50046;46.672;11.152;2023-01-04T00:15:26;0.40;;;0.40;;
63880;SDS011;50046;46.672;11.152;2023-01-04T00:15:36;0.43;;;0.43;;
63880;SDS011;50046;46.672;11.152;2023-01-04T00:15:46;0.50;;;0.50;;
63880;SDS011;50046;46.672;11.152;2023-01-04T00:15:57;0.50;;;0.50;;
63880;SDS011;50046;46.672;11.152;2023-01-04T00:16:13;0.50;;;0.50;;
63880;SDS011;50046;46.672;11.152;2023-01-04T00:16:26;0.45;;;0.45;;
63880;SDS011;50046;46.672;11.152;2023-01-04T00:16:37;0.40;;;0.40;;
63880;SDS011;50046;46.672;11.152;2023-01-04T00:16:47;0.40;;;0.40;;
63880;SDS011;50046;46.672;11.152;2023-01-04T00:16:58;0.40;;;0.40;;
63880;SDS011;50046;46.672;11.152;2023-01-04T00:17:08;0.50;;;0.50;;
63880;SDS011;50046;46.672;11.152;2023-01-04T00:17:18;0.55;;;0.55;;
63880;SDS011;50046;46.672;11.152;2023-01-04T00:17:29;0.50;;;0.50;;
63880;SDS011;50046;46.672;11.152;2023-01-04T00:17:39;0.50;;;0.50;;
63880;SDS011;50046;46.672;11.152;2023-01-04T00:17:50;0.43;;;0.43;;
63880;SDS011;50046;46.672;11.152;2023-01-04T00:18:00;0.40;;;0.40;;
63880;SDS011;50046;46.672;11.152;2023-01-04T00:18:10;0.40;;;0.40;;
63880;SDS011;50046;46.672;11.152;2023-01-04T00:18:23;0.40;;;0.40;;
63880;SDS011;50046;46.672;11.152;2023-01-04T00:18:34;0.50;;;0.50;;
63880;SDS011;50046;46.672;11.152;2023-01-04T00:18:45;0.52;;;0.52;;
63880;SDS011;50046;46.672;11.152;2023-01-04T00:18:56;0.50;;;0.50;;
63880;SDS011;50046;46.672;11.152;2023-01-04T00:19:08;0.50;;;0.50;;
63880;SDS011;50046;46.672;11.152;2023-01-04T00:19:20;0.40;;;0.40;;
63880;SDS011;50046;46.672;11.152;2023-01-04T00:19:31;0.40;;;0.40;;
63880;SDS011;50046;46.672;11.152;2023-01-04T00:19:41;0.40;;;0.40;;
63880;SDS011;50046;46.672;11.152;2023-01-04T00:19:52;0.40;;;0.40;;
63880;SDS011;50046;46.672;11.152;2023-01-04T00:20:02;0.50;;;0.50;;
63880;SDS011;50046;46.672;11.152;2023-01-04T00:20:13;0.50;;;0.50;;
63880;SDS011;50046;46.672;11.152;2023-01-04T00:20:23;0.50;;;0.50;;
63880;SDS011;50046;46.672;11.152;2023-01-04T00:20:34;0.50;;;0.50;;
63880;SDS011;50046;46.672;11.152;2023-01-04T00:20:44;0.40;;;0.40;;
63880;SDS011;50046;46.672;11.152;2023-01-04T00:20:54;0.40;;;0.40;;
63880;SDS011;50046;46.672;11.152;2023-01-04T00:21:09;0.40;;;0.40;;
63880;SDS011;50046;46.672;11.152;2023-01-04T00:21:22;0.43;;;0.43;;
63880;SDS011;50046;46.672;11.152;2023-01-04T00:21:37;0.50;;;0.50;;
63880;SDS011;50046;46.672;11.152;2023-01-04T00:21:48;0.50;;;0.50;;
63880;SDS011;50046;46.672;11.152;2023-01-04T00:21:58;0.40;;;0.40;;
63880;SDS011;50046;46.672;11.152;2023-01-04T00:22:08;0.40;;;0.40;;
63880;SDS011;50046;46.672;11.152;2023-01-04T00:22:19;0.40;;;0.40;;
63880;SDS011;50046;46.672;11.152;2023-01-04T00:22:32;0.40;;;0.40;;
63880;SDS011;50046;46.672;11.152;2023-01-04T00:22:43;0.50;;;0.50;;
63880;SDS011;50046;46.672;11.152;2023-01-04T00:22:53;0.50;;;0.50;;
63880;SDS011;50046;46.672;11.152;2023-01-04T00:23:04;0.50;;;0.50;;
63880;SDS011;50046;46.672;11.152;2023-01-04T00:23:14;0.50;;;0.50;;
63880;SDS011;50046;46.672;11.152;2023-01-04T00:23:24;0.50;;;0.50;;
63880;SDS011;50046;46.672;11.152;2023-01-04T00:23:35;0.50;;;0.50;;
63880;SDS011;50046;46.672;11.152;2023-01-04T00:23:48;0.40;;;0.40;;
63880;SDS011;50046;46.672;11.152;2023-01-04T00:24:00;0.40;;;0.40;;
63880;SDS011;50046;46.672;11.152;2023-01-04T00:24:10;0.50;;;0.50;;
63880;SDS011;50046;46.672;11.152;2023-01-04T00:24:24;0.50;;;0.50;;
63880;SDS011;50046;46.672;11.152;2023-01-04T00:24:34;0.50;;;0.50;;
63880;SDS011;50046;46.672;11.152;2023-01-04T00:24:44;0.40;;;0.40;;
63880;SDS011;50046;46.672;11.152;2023-01-04T00:24:55;0.40;;;0.40;;
63880;SDS011;50046;46.672;11.152;2023-01-04T00:25:05;0.30;;;0.30;;
63880;SDS011;50046;46.672;11.152;2023-01-04T00:25:16;0.47;;;0.47;;
63880;SDS011;50046;46.672;11.152;2023-01-04T00:25:26;0.57;;;0.57;;
63880;SDS011;50046;46.672;11.152;2023-01-04T00:25:37;0.60;;;0.60;;
63880;SDS011;50046;46.672;11.152;2023-01-04T00:25:49;0.52;;;0.52;;
63880;SDS011;50046;46.672;11.152;2023-01-04T00:25:59;0.50;;;0.50;;
63880;SDS011;50046;46.672;11.152;2023-01-04T00:26:12;0.47;;;0.47;;
63880;SDS011;50046;46.672;11.152;2023-01-04T00:26:25;0.40;;;0.40;;
63880;SDS011;50046;46.672;11.152;2023-01-04T00:26:37;0.40;;;0.40;;
63880;SDS011;50046;46.672;11.152;2023-01-04T00:26:47;0.43;;;0.43;;
63880;SDS011;50046;46.672;11.152;2023-01-04T00:26:58;0.50;;;0.50;;
63880;SDS011;50046;46.672;11.152;2023-01-04T00:27:08;0.52;;;0.52;;
63880;SDS011;50046;46.672;11.152;2023-01-04T00:27:19;0.50;;;0.50;;
63880;SDS011;50046;46.672;11.152;2023-01-04T00:27:29;0.50;;;0.50;;
63880;SDS011;50046;46.672;11.152;2023-01-04T00:27:39;0.50;;;0.50;;
63880;SDS011;50046;46.672;11.152;2023-01-04T00:27:50;0.40;;;0.40;;
63880;SDS011;50046;46.672;11.152;2023-01-04T00:28:01;0.40;;;0.40;;
63880;SDS011;50046;46.672;11.152;2023-01-04T00:28:11;0.40;;;0.40;;
63880;SDS011;50046;46.672;11.152;2023-01-04T00:28:22;0.47;;;0.47;;
63880;SDS011;50046;46.672;11.152;2023-01-04T00:28:32;0.50;;;0.50;;
63880;SDS011;50046;46.672;11.152;2023-01-04T00:28:42;0.50;;;0.50;;
63880;SDS011;50046;46.672;11.152;2023-01-04T00:28:53;0.50;;;0.50;;
63880;SDS011;50046;46.672;11.152;2023-01-04T00:29:06;0.52;;;0.52;;
63880;SDS011;50046;46.672;11.152;2023-01-04T00:29:16;0.50;;;0.50;;
63880;SDS011;50046;46.672;11.152;2023-01-04T00:29:27;0.47;;;0.47;;
63880;SDS011;50046;46.672;11.152;2023-01-04T00:29:37;0.40;;;0.40;;
63880;SDS011;50046;46.672;11.152;2023-01-04T00:29:47;0.60;;;0.60;;
63880;SDS011;50046;46.672;11.152;2023-01-04T00:29:58;0.63;;;0.63;;
63880;SDS011;50046;46.672;11.152;2023-01-04T00:30:08;0.70;;;0.70;;
63880;SDS011;50046;46.672;11.152;2023-01-04T00:30:19;0.60;;;0.60;;
63880;SDS011;50046;46.672;11.152;2023-01-04T00:30:29;0.50;;;0.50;;
63880;SDS011;50046;46.672;11.152;2023-01-04T00:30:40;0.50;;;0.50;;
63880;SDS011;50046;46.672;11.152;2023-01-04T00:30:50;0.50;;;0.50;;
63880;SDS011;50046;46.672;11.152;2023-01-04T00:31:01;0.50;;;0.50;;
63880;SDS011;50046;46.672;11.152;2023-01-04T00:31:13;0.50;;;0.50;;
63880;SDS011;50046;46.672;11.152;2023-01-04T00:31:24;0.40;;;0.40;;
63880;SDS011;50046;46.672;11.152;2023-01-04T00:31:36;0.40;;;0.40;;
63880;SDS011;50046;46.672;11.152;2023-01-04T00:31:47;0.40;;;0.40;;
63880;SDS011;50046;46.672;11.152;2023-01-04T00:31:57;0.50;;;0.50;;
63880;SDS011;50046;46.672;11.152;2023-01-04T00:32:07;0.50;;;0.50;;
63880;SDS011;50046;46.672;11.152;2023-01-04T00:32:18;0.47;;;0.47;;
63880;SDS011;50046;46.672;11.152;2023-01-04T00:32:28;0.40;;;0.40;;
63880;SDS011;50046;46.672;11.152;2023-01-04T00:32:38;0.40;;;0.40;;
63880;SDS011;50046;46.672;11.152;2023-01-04T00:32:49;0.40;;;0.40;;
63880;SDS011;50046;46.672;11.152;2023-01-04T00:32:59;0.43;;;0.43;;
63880;SDS011;50046;46.672;11.152;2023-01-04T00:33:09;0.55;;;0.55;;
63880;SDS011;50046;46.672;11.152;2023-01-04T00:33:20;0.60;;;0.60;;
63880;SDS011;50046;46.672;11.152;2023-01-04T00:33:30;0.50;;;0.50;;
63880;SDS011;50046;46.672;11.152;2023-01-04T00:33:41;0.50;;;0.50;;
63880;SDS011;50046;46.672;11.152;2023-01-04T00:33:58;0.40;;;0.40;;
63880;SDS011;50046;46.672;11.152;2023-01-04T00:34:12;0.40;;;0.40;;
63880;SDS011;50046;46.672;11.152;2023-01-04T00:34:23;0.40;;;0.40;;
63880;SDS011;50046;46.672;11.152;2023-01-04T00:34:34;0.50;;;0.50;;
63880;SDS011;50046;46.672;11.152;2023-01-04T00:34:44;0.60;;;0.60;;
63880;SDS011;50046;46.672;11.152;2023-01-04T00:34:54;0.60;;;0.60;;
63880;SDS011;50046;46.672;11.152;2023-01-04T00:35:05;0.60;;;0.60;;
63880;SDS011;50046;46.672;11.152;2023-01-04T00:35:15;0.50;;;0.50;;
63880;SDS011;50046;46.672;11.152;2023-01-04T00:35:26;0.50;;;0.50;;
63880;SDS011;50046;46.672;11.152;2023-01-04T00:35:36;0.50;;;0.50;;
63880;SDS011;50046;46.672;11.152;2023-01-04T00:35:46;0.40;;;0.40;;
63880;SDS011;50046;46.672;11.152;2023-01-04T00:36:15;0.40;;;0.40;;
63880;SDS011;50046;46.672;11.152;2023-01-04T00:36:25;0.50;;;0.50;;
63880;SDS011;50046;46.672;11.152;2023-01-04T00:36:36;0.50;;;0.50;;
63880;SDS011;50046;46.672;11.152;2023-01-04T00:36:47;0.50;;;0.50;;
63880;SDS011;50046;46.672;11.152;2023-01-04T00:36:57;0.40;;;0.40;;
63880;SDS011;50046;46.672;11.152;2023-01-04T00:37:08;0.40;;;0.40;;
63880;SDS011;50046;46.672;11.152;2023-01-04T00:37:18;0.40;;;0.40;;
63880;SDS011;50046;46.672;11.152;2023-01-04T00:37:29;0.40;;;0.40;;
63880;SDS011;50046;46.672;11.152;2023-01-04T00:37:40;0.50;;;0.50;;
63880;SDS011;50046;46.672;11.152;2023-01-04T00:37:50;0.53;;;0.53;;
63880;SDS011;50046;46.672;11.152;2023-01-04T00:38:01;0.50;;;0.50;;
63880;SDS011;50046;46.672;11.152;2023-01-04T00:38:11;0.50;;;0.50;;
63880;SDS011;50046;46.672;11.152;2023-01-04T00:38:21;0.50;;;0.50;;
63880;SDS011;50046;46.672;11.152;2023-01-04T00:38:32;0.40;;;0.40;;
63880;SDS011;50046;46.672;11.152;2023-01-04T00:38:43;0.40;;;0.40;;
63880;SDS011;50046;46.672;11.152;2023-01-04T00:38:54;0.40;;;0.40;;
63880;SDS011;50046;46.672;11.152;2023-01-04T00:39:19;0.60;;;0.60;;
63880;SDS011;50046;46.672;11.152;2023-01-04T00:39:29;0.53;;;0.53;;
63880;SDS011;50046;46.672;11.152;2023-01-04T00:39:39;0.50;;;0.50;;
63880;SDS011;50046;46.672;11.152;2023-01-04T00:39:50;0.50;;;0.50;;
63880;SDS011;50046;46.672;11.152;2023-01-04T00:40:00;0.40;;;0.40;;
63880;SDS011;50046;46.672;11.152;2023-01-04T00:40:11;0.40;;;0.40;;
63880;SDS011;50046;46.672;11.152;2023-01-04T00:40:21;0.50;;;0.50;;
63880;SDS011;50046;46.672;11.152;2023-01-04T00:40:32;0.50;;;0.50;;
63880;SDS011;50046;46.672;11.152;2023-01-04T00:40:43;0.60;;;0.60;;
63880;SDS011;50046;46.672;11.152;2023-01-04T00:40:53;0.50;;;0.50;;
63880;SDS011;50046;46.672;11.152;2023-01-04T00:41:04;0.50;;;0.50;;
63880;SDS011;50046;46.672;11.152;2023-01-04T00:41:16;0.47;;;0.47;;
63880;SDS011;50046;46.672;11.152;2023-01-04T00:41:26;0.40;;;0.40;;
63880;SDS011;50046;46.672;11.152;2023-01-04T00:41:55;0.40;;;0.40;;
63880;SDS011;50046;46.672;11.152;2023-01-04T00:42:14;0.50;;;0.50;;
63880;SDS011;50046;46.672;11.152;2023-01-04T00:42:24;0.50;;;0.50;;
63880;SDS011;50046;46.672;11.152;2023-01-04T00:42:34;0.50;;;0.50;;
63880;SDS011;50046;46.672;11.152;2023-01-04T00:42:45;0.40;;;0.40;;
63880;SDS011;50046;46.672;11.152;2023-01-04T00:42:55;0.40;;;0.40;;
63880;SDS011;50046;46.672;11.152;2023-01-04T00:43:05;0.40;;;0.40;;
63880;SDS011;50046;46.672;11.152;2023-01-04T00:43:16;0.53;;;0.53;;
63880;SDS011;50046;46.672;11.152;2023-01-04T00:43:26;0.65;;;0.65;;
63880;SDS011;50046;46.672;11.152;2023-01-04T00:43:36;0.70;;;0.70;;
63880;SDS011;50046;46.672;11.152;2023-01-04T00:43:47;0.60;;;0.60;;
63880;SDS011;50046;46.672;11.152;2023-01-04T00:43:57;0.60;;;0.60;;
63880;SDS011;50046;46.672;11.152;2023-01-04T00:44:09;0.50;;;0.50;;
63880;SDS011;50046;46.672;11.152;2023-01-04T00:44:20;0.50;;;0.50;;
63880;SDS011;50046;46.672;11.152;2023-01-04T00:44:33;0.43;;;0.43;;
63880;SDS011;50046;46.672;11.152;2023-01-04T00:44:44;0.40;;;0.40;;
63880;SDS011;50046;46.672;11.152;2023-01-04T00:44:54;0.40;;;0.40;;
63880;SDS011;50046;46.672;11.152;2023-01-04T00:45:04;0.40;;;0.40;;
63880;SDS011;50046;46.672;11.152;2023-01-04T00:45:15;0.40;;;0.40;;
63880;SDS011;50046;46.672;11.152;2023-01-04T00:45:26;0.40;;;0.40;;
63880;SDS011;50046;46.672;11.152;2023-01-04T00:45:36;0.50;;;0.50;;
63880;SDS011;50046;46.672;11.152;2023-01-04T00:45:46;0.50;;;0.50;;
63880;SDS011;50046;46.672;11.152;2023-01-04T00:45:57;0.40;;;0.40;;
63880;SDS011;50046;46.672;11.152;2023-01-04T00:46:07;0.40;;;0.40;;
63880;SDS011;50046;46.672;11.152;2023-01-04T00:46:20;0.40;;;0.40;;
63880;SDS011;50046;46.672;11.152;2023-01-04T00:46:30;0.30;;;0.30;;
63880;SDS011;50046;46.672;11.152;2023-01-04T00:46:42;0.40;;;0.40;;
63880;SDS011;50046;46.672;11.152;2023-01-04T00:46:53;0.50;;;0.50;;
63880;SDS011;50046;46.672;11.152;2023-01-04T00:47:03;0.50;;;0.50;;
63880;SDS011;50046;46.672;11.152;2023-01-04T00:47:14;0.50;;;0.50;;
63880;SDS011;50046;46.672;11.152;2023-01-04T00:47:24;0.50;;;0.50;;
63880;SDS011;50046;46.672;11.152;2023-01-04T00:47:34;0.50;;;0.50;;
63880;SDS011;50046;46.672;11.152;2023-01-04T00:47:45;0.40;;;0.40;;
63880;SDS011;50046;46.672;11.152;2023-01-04T00:47:55;0.40;;;0.40;;
63880;SDS011;50046;46.672;11.152;2023-01-04T00:48:05;0.40;;;0.40;;
63880;SDS011;50046;46.672;11.152;2023-01-04T00:48:16;0.50;;;0.50;;
63880;SDS011;50046;46.672;11.152;2023-01-04T00:48:27;0.60;;;0.60;;
63880;SDS011;50046;46.672;11.152;2023-01-04T00:48:38;0.60;;;0.60;;
63880;SDS011;50046;46.672;11.152;2023-01-04T00:48:48;0.60;;;0.60;;
63880;SDS011;50046;46.672;11.152;2023-01-04T00:48:59;0.60;;;0.60;;
63880;SDS011;50046;46.672;11.152;2023-01-04T00:49:10;0.50;;;0.50;;
63880;SDS011;50046;46.672;11.152;2023-01-04T00:49:21;0.50;;;0.50;;
63880;SDS011;50046;46.672;11.152;2023-01-04T00:49:32;0.50;;;0.50;;
63880;SDS011;50046;46.672;11.152;2023-01-04T00:49:42;0.43;;;0.43;;
63880;SDS011;50046;46.672;11.152;2023-01-04T00:49:53;0.40;;;0.40;;
63880;SDS011;50046;46.672;11.152;2023-01-04T00:50:03;0.40;;;0.40;;
63880;SDS011;50046;46.672;11.152;2023-01-04T00:50:14;0.40;;;0.40;;
63880;SDS011;50046;46.672;11.152;2023-01-04T00:50:24;0.50;;;0.50;;
63880;SDS011;50046;46.672;11.152;2023-01-04T00:50:34;0.50;;;0.50;;
63880;SDS011;50046;46.672;11.152;2023-01-04T00:50:45;0.50;;;0.50;;
63880;SDS011;50046;46.672;11.152;2023-01-04T00:50:57;0.40;;;0.40;;
63880;SDS011;50046;46.672;11.152;2023-01-04T00:51:08;0.40;;;0.40;;
63880;SDS011;50046;46.672;11.152;2023-01-04T00:51:19;0.40;;;0.40;;
63880;SDS011;50046;46.672;11.152;2023-01-04T00:51:30;0.30;;;0.30;;
63880;SDS011;50046;46.672;11.152;2023-01-04T00:51:41;0.40;;;0.40;;
63880;SDS011;50046;46.672;11.152;2023-01-04T00:51:52;0.40;;;0.40;;
63880;SDS011;50046;46.672;11.152;2023-01-04T00:52:02;0.50;;;0.50;;
63880;SDS011;50046;46.672;11.152;2023-01-04T00:52:13;0.40;;;0.40;;
63880;SDS011;50046;46.672;11.152;2023-01-04T00:52:23;0.40;;;0.40;;
63880;SDS011;50046;46.672;11.152;2023-01-04T00:52:34;0.40;;;0.40;;
63880;SDS011;50046;46.672;11.152;2023-01-04T00:52:44;0.40;;;0.40;;
63880;SDS011;50046;46.672;11.152;2023-01-04T00:52:54;0.40;;;0.40;;
63880;SDS011;50046;46.672;11.152;2023-01-04T00:53:05;0.40;;;0.40;;
63880;SDS011;50046;46.672;11.152;2023-01-04T00:53:16;0.50;;;0.50;;
63880;SDS011;50046;46.672;11.152;2023-01-04T00:53:27;0.60;;;0.60;;
63880;SDS011;50046;46.672;11.152;2023-01-04T00:53:37;0.60;;;0.60;;
63880;SDS011;50046;46.672;11.152;2023-01-04T00:53:47;0.60;;;0.60;;
63880;SDS011;50046;46.672;11.152;2023-01-04T00:54:01;0.50;;;0.50;;
63880;SDS011;50046;46.672;11.152;2023-01-04T00:54:13;0.50;;;0.50;;
63880;SDS011;50046;46.672;11.152;2023-01-04T00:54:24;0.50;;;0.50;;
63880;SDS011;50046;46.672;11.152;2023-01-04T00:54:35;0.40;;;0.40;;
63880;SDS011;50046;46.672;11.152;2023-01-04T00:54:45;0.40;;;0.40;;
63880;SDS011;50046;46.672;11.152;2023-01-04T00:54:55;0.32;;;0.32;;
63880;SDS011;50046;46.672;11.152;2023-01-04T00:55:06;0.40;;;0.40;;
63880;SDS011;50046;46.672;11.152;2023-01-04T00:55:16;0.50;;;0.50;;
63880;SDS011;50046;46.672;11.152;2023-01-04T00:55:28;0.50;;;0.50;;
63880;SDS011;50046;46.672;11.152;2023-01-04T00:55:39;0.50;;;0.50;;
63880;SDS011;50046;46.672;11.152;2023-01-04T00:55:49;0.40;;;0.40;;
63880;SDS011;50046;46.672;11.152;2023-01-04T00:56:00;0.40;;;0.40;;
63880;SDS011;50046;46.672;11.152;2023-01-04T00:56:10;0.40;;;0.40;;
63880;SDS011;50046;46.672;11.152;2023-01-04T00:56:21;0.40;;;0.40;;
63880;SDS011;50046;46.672;11.152;2023-01-04T00:56:32;0.50;;;0.50;;
63880;SDS011;50046;46.672;11.152;2023-01-04T00:56:43;0.50;;;0.50;;
63880;SDS011;50046;46.672;11.152;2023-01-04T00:56:53;0.50;;;0.50;;
63880;SDS011;50046;46.672;11.152;2023-01-04T00:57:04;0.50;;;0.50;;
63880;SDS011;50046;46.672;11.152;2023-01-04T00:57:16;0.50;;;0.50;;
63880;SDS011;50046;46.672;11.152;2023-01-04T00:57:26;0.50;;;0.50;;
63880;SDS011;50046;46.672;11.152;2023-01-04T00:57:36;0.45;;;0.45;;
63880;SDS011;50046;46.672;11.152;2023-01-04T00:57:47;0.40;;;0.40;;
63880;SDS011;50046;46.672;11.152;2023-01-04T00:57:57;0.40;;;0.40;;
63880;SDS011;50046;46.672;11.152;2023-01-04T00:58:07;0.40;;;0.40;;
63880;SDS011;50046;46.672;11.152;2023-01-04T00:58:18;0.50;;;0.50;;
63880;SDS011;50046;46.672;11.152;2023-01-04T00:58:28;0.60;;;0.60;;
63880;SDS011;50046;46.672;11.152;2023-01-04T00:58:39;0.68;;;0.68;;
63880;SDS011;50046;46.672;11.152;2023-01-04T00:58:52;0.60;;;0.60;;
63880;SDS011;50046;46.672;11.152;2023-01-04T00:59:03;0.60;;;0.60;;
63880;SDS011;50046;46.672;11.152;2023-01-04T00:59:15;0.50;;;0.50;;
63880;SDS011;50046;46.672;11.152;2023-01-04T00:59:27;0.50;;;0.50;;
63880;SDS011;50046;46.672;11.152;2023-01-04T00:59:37;0.50;;;0.50;;
63880;SDS011;50046;46.672;11.152;2023-01-04T00:59:47;0.40;;;0.40;;
63880;SDS011;50046;46.672;11.152;2023-01-04T00:59:58;0.40;;;0.40;;
63880;SDS011;50046;46.672;11.152;2023-01-04T01:00:08;0.40;;;0.40;;
63880;SDS011;50046;46.672;11.152;2023-01-04T01:00:19;0.43;;;0.43;;
63880;SDS011;50046;46.672;11.152;2023-01-04T01:00:29;0.50;;;0.50;;
63880;SDS011;50046;46.672;11.152;2023-01-04T01:00:40;0.60;;;0.60;;
63880;SDS011;50046;46.672;11.152;2023-01-04T01:00:50;0.63;;;0.63;;
63880;SDS011;50046;46.672;11.152;2023-01-04T01:01:06;0.60;;;0.60;;
63880;SDS011;50046;46.672;11.152;2023-01-04T01:01:17;0.50;;;0.50;;
63880;SDS011;50046;46.672;11.152;2023-01-04T01:01:28;0.40;;;0.40;;
63880;SDS011;50046;46.672;11.152;2023-01-04T01:01:40;0.40;;;0.40;;
63880;SDS011;50046;46.672;11.152;2023-01-04T01:01:51;0.40;;;0.40;;
63880;SDS011;50046;46.672;11.152;2023-01-04T01:02:02;0.40;;;0.40;;
63880;SDS011;50046;46.672;11.152;2023-01-04T01:02:12;0.50;;;0.50;;
63880;SDS011;50046;46.672;11.152;2023-01-04T01:02:22;0.50;;;0.50;;
63880;SDS011;50046;46.672;11.152;2023-01-04T01:02:32;0.50;;;0.50;;
63880;SDS011;50046;46.672;11.152;2023-01-04T01:02:43;0.45;;;0.45;;
63880;SDS011;50046;46.672;11.152;2023-01-04T01:02:53;0.40;;;0.40;;
63880;SDS011;50046;46.672;11.152;2023-01-04T01:03:04;0.40;;;0.40;;
63880;SDS011;50046;46.672;11.152;2023-01-04T01:03:15;0.43;;;0.43;;
63880;SDS011;50046;46.672;11.152;2023-01-04T01:03:25;0.50;;;0.50;;
63880;SDS011;50046;46.672;11.152;2023-01-04T01:03:36;0.57;;;0.57;;
63880;SDS011;50046;46.672;11.152;2023-01-04T01:03:47;0.50;;;0.50;;
63880;SDS011;50046;46.672;11.152;2023-01-04T01:03:58;0.50;;;0.50;;
63880;SDS011;50046;46.672;11.152;2023-01-04T01:04:13;0.50;;;0.50;;
63880;SDS011;50046;46.672;11.152;2023-01-04T01:04:25;0.40;;;0.40;;
63880;SDS011;50046;46.672;11.152;2023-01-04T01:04:36;0.40;;;0.40;;
63880;SDS011;50046;46.672;11.152;2023-01-04T01:04:46;0.50;;;0.50;;
63880;SDS011;50046;46.672;11.152;2023-01-04T01:04:56;0.60;;;0.60;;
63880;SDS011;50046;46.672;11.152;2023-01-04T01:05:07;0.60;;;0.60;;
63880;SDS011;50046;46.672;11.152;2023-01-04T01:05:17;0.50;;;0.50;;